• Join FlightAware (Why Join?)
  • Login
  • US Flag 
01:04PM EST


 

Airport Tracker/Info


-or-


 

Live Flight TrackerFlight Track Log ✈ SWA1821 ✈ 01-Mar-2014 ✈ KDEN - KHOU

Flight Track Log - Related Links

Times and Time Zones

All times are in EST time to prevent confusion due to time zone crossing. See the SWA1821 flight status page for this flight to view local times or setup timezone preferences in your user account.

Time Position Orientation Groundspeed Altitude Reporting Facility
EST Latitude Longitude Course Direction KTS MPH feet Rate Location/Type
12:03PM 39.8333 -104.8000 162° South 239 275 8,000  Level Denver TRACON
12:04PM 39.8000 -104.8833 243° Southwest 253 291 10,300 2,043 Climbing Denver TRACON
12:05PM 39.7536 -104.8900 186° South 298 343 11,200 2,589 Climbing Denver Center
12:06PM 39.6689 -104.8700 170° South 311 358 14,400 2,855 Climbing Denver Center
12:07PM 39.5692 -104.8500 171° South 332 382 17,100 2,661 Climbing Denver Center
12:08PM 39.2208 -103.9846 162° South  Level Estimated
12:08PM 39.4731 -104.8297 171° South 350 403 19,900  Level Denver Center
12:09PM 39.3736 -104.8069 170° South 345 397 21,900 2,049 Climbing Denver Center
12:10PM 39.2697 -104.7847 171° South 372 428 24,100 2,195 Climbing Denver Center
12:11PM 39.1675 -104.7622 170° South 373 429 26,400 1,887 Climbing Denver Center
12:12PM 39.0611 -104.7422 172° South 369 425 28,000 1,161 Climbing Denver Center
12:13PM 38.9578 -104.7028 163° South 408 470 28,800 1,258 Climbing Denver Center
12:14PM 38.8256 -104.6444 161° South 417 480 30,600 1,694 Climbing Denver Center
12:15PM 38.7144 -104.5986 162° South 418 481 32,300 1,694 Climbing Denver Center
12:16PM 38.6047 -104.5547 163° South 417 480 34,100 1,597 Climbing Denver Center
12:17PM 38.4989 -104.5108 162° South 405 466 35,600 968 Climbing Denver Center
12:18PM 38.3911 -104.4689 163° South 403 464 36,100 629 Climbing Denver Center
12:19PM 38.2742 -104.4136 160° South 422 486 36,900 726 Climbing Denver Center
12:20PM 38.1536 -104.3122 147° Southeast 458 527 37,600 823 Climbing Denver Center
12:21PM 38.0497 -104.2294 148° Southeast 458 527 38,600 677 Climbing Denver Center
12:22PM 37.9303 -104.1344 148° Southeast 456 525 39,000 176 Climbing Denver Center
12:23PM 37.8097 -104.0381 148° Southeast 455 524 39,000  Level Denver Center
12:24PM 37.6875 -103.9400 148° Southeast 459 528 39,000  Level Denver Center
12:25PM 37.5819 -103.8550 147° Southeast 459 528 39,000  Level Denver Center
12:27PM 37.4769 -103.7731 148° Southeast 459 528 39,000  Level Denver Center
12:28PM 37.3564 -103.6767 148° Southeast 459 528 39,000  Level Denver Center
12:29PM 37.2656 -103.5706 137° Southeast 466 536 39,000  Level Denver Center
12:30PM 37.1778 -103.4197 126° Southeast 476 548 39,000  Level Denver Center
12:31PM 37.1000 -103.2894 127° Southeast 485 558 39,000  Level Denver Center
12:32PM 37.0094 -103.1403 127° Southeast 483 556 39,000  Level Denver Center
12:33PM 36.9328 -103.0125 127° Southeast 482 555 39,000  Level Denver Center
12:34PM 36.8172 -102.8244 127° Southeast 479 551 39,000  Level Albuquerque Center
12:35PM 36.7403 -102.6972 127° Southeast 478 550 39,000  Level Albuquerque Center
12:36PM 36.6489 -102.5475 127° Southeast 484 557 39,000  Level Albuquerque Center
12:37PM 36.5683 -102.4161 127° Southeast 490 564 39,000  Level Albuquerque Center
12:38PM 36.4856 -102.2833 128° Southeast 488 562 39,000  Level Albuquerque Center
12:39PM 36.4031 -102.1478 127° Southeast 489 563 39,000  Level Albuquerque Center
12:40PM 36.3189 -102.0119 128° Southeast 494 568 39,000  Level Albuquerque Center
12:41PM 36.2344 -101.8781 128° Southeast 494 568 39,000  Level Albuquerque Center
12:42PM 36.1347 -101.7181 128° Southeast 489 563 39,000  Level Albuquerque Center
12:43PM 36.0517 -101.5872 128° Southeast 486 559 39,000  Level Albuquerque Center
12:44PM 35.9672 -101.4531 128° Southeast 489 563 39,000  Level Albuquerque Center
12:45PM 35.8839 -101.3206 128° Southeast 488 562 39,000  Level Albuquerque Center
12:46PM 35.8008 -101.1894 128° Southeast 486 559 39,000  Level Albuquerque Center
12:47PM 35.7167 -101.0586 128° Southeast 485 558 39,000  Level Albuquerque Center
12:49PM 35.6331 -100.9294 129° Southeast 483 556 39,000  Level Albuquerque Center
12:50PM 35.5497 -100.7992 128° Southeast 483 556 39,000  Level Albuquerque Center
12:51PM 35.4503 -100.6436 128° Southeast 482 555 39,000  Level Albuquerque Center
12:52PM 35.3761 -100.5297 129° Southeast 483 556 39,000  Level Albuquerque Center
12:53PM 35.2914 -100.4014 129° Southeast 485 558 39,000  Level Albuquerque Center
12:54PM 35.1906 -100.2472 129° Southeast 485 558 39,000  Level Albuquerque Center
12:55PM 35.1061 -100.1186 129° Southeast 486 559 39,000  Level Albuquerque Center
12:56PM 35.0197 -99.9889 129° Southeast 490 564 39,000  Level Albuquerque Center
12:57PM 34.9342 -99.8583 129° Southeast 493 567 39,000  Level Albuquerque Center
12:58PM 34.8467 -99.7269 129° Southeast 497 572 39,000  Level Albuquerque Center
12:59PM 34.7103 -99.5242 129° Southeast 502 578 39,000  Level Fort Worth Center
01:00PM 34.6172 -99.3847 129° Southeast 501 577 39,000  Level Fort Worth Center
01:01PM 34.5292 -99.2550 129° Southeast 499 574 39,000  Level Fort Worth Center
01:02PM 34.4419 -99.1253 129° Southeast 499 574 39,000  Level Fort Worth Center
01:03PM 34.3539 -98.9958 129° Southeast 498 573 39,000  Level Fort Worth Center
01:04PM 34.2672 -98.8686 129° Southeast 495 570 39,000  Level Fort Worth Center
01:05PM 34.1803 -98.7411 129° Southeast 493 567 39,000  Level Fort Worth Center
01:06PM 34.0836 -98.6008 130° Southeast 492 566 39,000 -48 Level Fort Worth Center
01:07PM 33.9969 -98.4739 129° Southeast 492 566 38,900 -48 Descending Fort Worth Center
01:09PM 33.9092 -98.3489 130° Southeast 491 565 38,900  Level Fort Worth Center
01:10PM 33.8208 -98.2203 130° Southeast 494 568 38,900  Level Fort Worth Center
01:11PM 33.7164 -98.0697 130° Southeast 493 567 38,900 49 Level Fort Worth Center
01:12PM 33.6292 -97.9442 130° Southeast 489 563 39,000  Climbing Fort Worth Center
01:13PM 33.5411 -97.8200 130° Southeast 489 563 38,900 -48 Descending Fort Worth Center
01:14PM 33.4542 -97.6947 130° Southeast 490 564 38,900  Level Fort Worth Center
01:15PM 33.3658 -97.5703 130° Southeast 489 563 38,900  Level Fort Worth Center
01:16PM 33.2794 -97.4475 130° Southeast 485 558 38,900  Level Fort Worth Center
01:17PM 33.1911 -97.3247 131° Southeast 485 558 38,900 48 Level Fort Worth Center
01:18PM 33.1044 -97.2017 130° Southeast 481 554 39,000  Climbing Fort Worth Center
01:19PM 33.0139 -97.0817 132° Southeast 478 550 38,900 -48 Descending Fort Worth Center
01:20PM 32.8703 -97.0447 168° South 428 493 38,900 48 Level Fort Worth Center
01:21PM 32.7542 -97.0258 172° South 418 481 39,000  Climbing Fort Worth Center
01:22PM 32.6381 -97.0061 172° South 418 481 38,900 -48 Descending Fort Worth Center
01:23PM 32.5214 -96.9847 171° South 419 482 38,900  Level Fort Worth Center
01:24PM 32.4044 -96.9650 172° South 424 488 38,900  Level Fort Worth Center
01:25PM 32.2864 -96.9458 172° South 424 488 38,900  Level Fort Worth Center
01:26PM 32.1686 -96.9219 170° South 428 493 38,900  Level Fort Worth Center
01:27PM 32.0275 -96.8986 172° South 428 493 38,900 48 Level Fort Worth Center
01:28PM 31.9311 -96.8839 173° South 427 491 39,000 65 Climbing Fort Worth Center
01:29PM 31.8503 -96.8678 170° South 427 491 39,000  Level Houston Center
01:30PM 31.7331 -96.8472 172° South 426 490 39,000  Level Houston Center
01:31PM 31.6144 -96.8283 172° South 426 490 39,000 -48 Level Houston Center
01:32PM 31.4961 -96.8067 171° South 426 490 38,900 -1,403 Descending Houston Center
01:33PM 31.3775 -96.7872 172° South 425 489 36,100 -2,661 Descending Houston Center
01:34PM 31.2569 -96.7658 171° South 426 490 33,400 -3,072 Descending Houston Center
01:35PM 31.1142 -96.7419 172° South 433 498 29,700 -2,832 Descending Houston Center
01:36PM 30.9911 -96.7233 173° South 438 504 27,500 -2,032 Descending Houston Center
01:37PM 30.8733 -96.7050 172° South 427 491 25,500 -2,371 Descending Houston Center
01:38PM 30.7622 -96.6717 166° South 411 473 22,600 -2,419 Descending Houston Center
01:39PM 30.6611 -96.5869 144° Southeast 440 506 20,500 -1,839 Descending Houston Center
01:40PM 30.5706 -96.5106 144° Southeast 408 470 18,800 -1,853 Descending Houston Center
01:40PM 30.5508 -96.4964 148° Southeast 394 453 18,400 -1,953 Descending Houston Center
01:41PM 30.5036 -96.4556 143° Southeast 384 442 17,400 -1,714 Descending Houston Center
01:41PM 30.4750 -96.4303 143° Southeast 389 448 16,800 -1,869 Descending Houston Center
01:42PM 30.4133 -96.3808 145° Southeast 377 434 15,500 -1,645 Descending Houston Center
01:42PM 30.3956 -96.3644 142° Southeast 384 442 15,100 -1,881 Descending Houston Center
01:43PM 30.3186 -96.2994 144° Southeast 365 420 13,400 -2,129 Descending Houston Center
01:43PM 30.2992 -96.2836 145° Southeast 367 422 12,900 -1,742 Descending Houston Center
01:44PM 30.2375 -96.2336 145° Southeast 353 406 11,600 -1,742 Descending Houston Center
01:44PM 30.2186 -96.2186 146° Southeast 355 409 11,100 -590 Descending Houston Center
01:45PM 30.1575 -96.1822 153° Southeast 315 362 11,000 -95 Descending Houston Center
01:45PM 30.1386 -96.1689 149° Southeast 322 371 11,000  Level Houston Center
01:46PM 30.1019 -96.0967 120° Southeast 319 367 11,000  Level Houston Center
01:46PM 30.0917 -96.0719 116° Southeast 320 368 11,000  Level Houston Center
01:47PM 30.0583 -96.0053 120° Southeast 320 368 11,000 -97 Level Houston Center
01:47PM 30.0519 -95.9875 113° Southeast 321 369 10,900 -982 Descending Houston Center
01:48PM 30.0219 -95.9250 119° Southeast 308 354 10,100 -1,065 Descending Houston Center
01:48PM 30.0128 -95.9000 113° Southeast 310 357 9,800 -984 Descending Houston Center
01:49PM 29.9811 -95.8403 121° Southeast 298 343 9,100 -968 Descending Houston Center
01:49PM 29.9717 -95.8186 117° Southeast 300 345 8,800 -1,082 Descending Houston Center
01:50PM 29.9425 -95.7606 120° Southeast 277 319 8,000 -1,161 Descending Houston Center
01:50PM 29.9278 -95.7264 116° Southeast 277 319 7,600 -986 Descending Houston Center
01:51PM 29.8986 -95.6669 119° Southeast 268 308 6,800 -968 Descending Houston Center
01:51PM 29.8925 -95.6500 113° Southeast 273 314 6,600 -982 Descending Houston Center
01:52PM 29.8672 -95.5983 119° Southeast 262 302 5,900 -1,065 Descending Houston Center
01:52PM 29.8572 -95.5769 118° Southeast 266 306 5,500 -984 Descending Houston Center
01:53PM 29.8336 -95.5275 119° Southeast 250 288 4,900 -774 Descending Houston Center
01:53PM 29.8244 -95.5083 119° Southeast 250 288 4,700 -627 Descending Houston Center
01:54PM 29.7981 -95.4597 122° Southeast 205 236 4,200 -581 Descending Houston Center
01:55PM 29.7911 -95.4503 130° Southeast 225 259 4,100 -982 Descending Houston Center
01:55PM 29.7631 -95.4206 137° Southeast 192 221 3,300 -968 Descending Houston Center
01:56PM 29.7539 -95.4086 131° Southeast 194 223 3,100 -896 Descending Houston Center
01:56PM 29.7275 -95.3767 134° Southeast 156 180 2,300 -1,082 Descending Houston Center
01:57PM 29.7169 -95.3631 132° Southeast 177 204 2,000 -873 Descending Houston Center
01:57PM 29.6992 -95.3439 137° Southeast 149 171 1,500 -774 Descending Houston Center
01:58PM 29.6881 -95.3294 132° Southeast 164 189 1,200 -800 Descending Houston Center
01:58PM 29.6711 -95.3111 137° Southeast 149 171 700 -762 Descending Houston Center
01:59PM 29.6594 -95.2956 131° Southeast 155 178 400 -391 Descending Houston Center
02:00PM 29.6328 -95.2644 135° Southeast 152 175 100 -295 Descending Houston Center